sensor_id;sensor_type;location;lat;lon;timestamp;temperature;humidity
4399;DHT22;2213;49.720;7.296;2023-03-23T00:00:22;12.90;99.90
4399;DHT22;2213;49.720;7.296;2023-03-23T00:02:51;12.80;99.90
4399;DHT22;2213;49.720;7.296;2023-03-23T00:05:20;12.80;99.90
4399;DHT22;2213;49.720;7.296;2023-03-23T00:07:47;12.80;99.90
4399;DHT22;2213;49.720;7.296;2023-03-23T00:10:18;12.80;99.90
4399;DHT22;2213;49.720;7.296;2023-03-23T00:12:46;12.80;99.90
4399;DHT22;2213;49.720;7.296;2023-03-23T00:15:15;12.80;99.90
4399;DHT22;2213;49.720;7.296;2023-03-23T00:17:43;12.90;99.90
4399;DHT22;2213;49.720;7.296;2023-03-23T00:20:13;12.80;99.90
4399;DHT22;2213;49.720;7.296;2023-03-23T00:22:42;12.90;99.90
4399;DHT22;2213;49.720;7.296;2023-03-23T00:25:12;12.80;99.90
4399;DHT22;2213;49.720;7.296;2023-03-23T00:27:42;12.80;99.90
4399;DHT22;2213;49.720;7.296;2023-03-23T00:30:12;12.80;99.90
4399;DHT22;2213;49.720;7.296;2023-03-23T00:32:41;12.80;99.90
4399;DHT22;2213;49.720;7.296;2023-03-23T00:35:10;12.70;99.90
4399;DHT22;2213;49.720;7.296;2023-03-23T00:37:41;12.80;99.90
4399;DHT22;2213;49.720;7.296;2023-03-23T00:40:12;12.80;99.90
4399;DHT22;2213;49.720;7.296;2023-03-23T00:42:41;12.80;99.90
4399;DHT22;2213;49.720;7.296;2023-03-23T00:45:10;12.80;99.90
4399;DHT22;2213;49.720;7.296;2023-03-23T00:47:38;12.80;99.90
4399;DHT22;2213;49.720;7.296;2023-03-23T00:50:08;12.80;99.90
4399;DHT22;2213;49.720;7.296;2023-03-23T00:52:40;12.80;99.90
4399;DHT22;2213;49.720;7.296;2023-03-23T00:55:08;12.70;99.90
4399;DHT22;2213;49.720;7.296;2023-03-23T00:57:36;12.70;99.90
4399;DHT22;2213;49.720;7.296;2023-03-23T01:00:08;12.70;99.90
4399;DHT22;2213;49.720;7.296;2023-03-23T01:02:41;12.70;99.90
4399;DHT22;2213;49.720;7.296;2023-03-23T01:05:11;12.70;99.90
4399;DHT22;2213;49.720;7.296;2023-03-23T01:07:42;12.70;99.90
4399;DHT22;2213;49.720;7.296;2023-03-23T01:10:11;12.60;99.90
4399;DHT22;2213;49.720;7.296;2023-03-23T01:12:43;12.60;99.90
4399;DHT22;2213;49.720;7.296;2023-03-23T01:15:16;12.70;99.90
4399;DHT22;2213;49.720;7.296;2023-03-23T01:17:47;12.60;99.90
4399;DHT22;2213;49.720;7.296;2023-03-23T01:20:15;12.60;99.90
4399;DHT22;2213;49.720;7.296;2023-03-23T01:22:45;12.50;99.90
4399;DHT22;2213;49.720;7.296;2023-03-23T01:25:14;12.60;99.90
4399;DHT22;2213;49.720;7.296;2023-03-23T01:27:43;12.50;99.90
4399;DHT22;2213;49.720;7.296;2023-03-23T01:30:12;12.40;99.90
4399;DHT22;2213;49.720;7.296;2023-03-23T01:32:42;12.50;99.90
4399;DHT22;2213;49.720;7.296;2023-03-23T01:35:12;12.50;99.90
4399;DHT22;2213;49.720;7.296;2023-03-23T01:37:40;12.50;99.90
4399;DHT22;2213;49.720;7.296;2023-03-23T01:40:11;12.40;99.90
4399;DHT22;2213;49.720;7.296;2023-03-23T01:42:39;12.50;99.90
4399;DHT22;2213;49.720;7.296;2023-03-23T01:45:29;12.40;99.90
4399;DHT22;2213;49.720;7.296;2023-03-23T01:48:05;12.40;99.90
4399;DHT22;2213;49.720;7.296;2023-03-23T01:50:43;12.40;99.90
4399;DHT22;2213;49.720;7.296;2023-03-23T01:53:18;12.50;99.90
4399;DHT22;2213;49.720;7.296;2023-03-23T01:55:50;12.40;99.90
4399;DHT22;2213;49.720;7.296;2023-03-23T01:58:24;12.50;99.90
4399;DHT22;2213;49.720;7.296;2023-03-23T02:00:56;12.40;99.90
4399;DHT22;2213;49.720;7.296;2023-03-23T02:03:27;12.30;99.90
4399;DHT22;2213;49.720;7.296;2023-03-23T02:05:57;12.40;99.90
4399;DHT22;2213;49.720;7.296;2023-03-23T02:08:27;12.40;99.90
4399;DHT22;2213;49.720;7.296;2023-03-23T02:11:00;12.40;99.90
4399;DHT22;2213;49.720;7.296;2023-03-23T02:13:30;12.40;99.90
4399;DHT22;2213;49.720;7.296;2023-03-23T02:16:03;12.40;99.90
4399;DHT22;2213;49.720;7.296;2023-03-23T02:18:49;12.40;99.90
4399;DHT22;2213;49.720;7.296;2023-03-23T02:25:06;12.20;99.90
4399;DHT22;2213;49.720;7.296;2023-03-23T02:31:30;12.30;99.90
4399;DHT22;2213;49.720;7.296;2023-03-23T02:34:16;12.30;99.90
4399;DHT22;2213;49.720;7.296;2023-03-23T02:36:48;12.20;99.90
4399;DHT22;2213;49.720;7.296;2023-03-23T02:39:21;12.10;99.90
4399;DHT22;2213;49.720;7.296;2023-03-23T02:41:54;12.20;99.90
4399;DHT22;2213;49.720;7.296;2023-03-23T02:44:28;12.10;99.90
4399;DHT22;2213;49.720;7.296;2023-03-23T02:46:59;12.10;99.90
4399;DHT22;2213;49.720;7.296;2023-03-23T02:49:34;12.10;99.90
4399;DHT22;2213;49.720;7.296;2023-03-23T02:52:08;12.00;99.90
4399;DHT22;2213;49.720;7.296;2023-03-23T02:54:42;12.00;99.90
4399;DHT22;2213;49.720;7.296;2023-03-23T02:57:13;12.00;99.90
4399;DHT22;2213;49.720;7.296;2023-03-23T02:59:43;12.00;99.90
4399;DHT22;2213;49.720;7.296;2023-03-23T03:02:14;12.00;99.90
4399;DHT22;2213;49.720;7.296;2023-03-23T03:04:53;11.90;99.90
4399;DHT22;2213;49.720;7.296;2023-03-23T03:07:35;12.00;99.90
4399;DHT22;2213;49.720;7.296;2023-03-23T03:10:14;11.90;99.90
4399;DHT22;2213;49.720;7.296;2023-03-23T03:12:53;11.90;99.90
4399;DHT22;2213;49.720;7.296;2023-03-23T03:15:31;11.90;99.90
4399;DHT22;2213;49.720;7.296;2023-03-23T03:18:08;11.90;99.90
4399;DHT22;2213;49.720;7.296;2023-03-23T03:20:45;11.90;99.90
4399;DHT22;2213;49.720;7.296;2023-03-23T03:23:17;11.80;99.90
4399;DHT22;2213;49.720;7.296;2023-03-23T03:25:50;11.80;99.90
4399;DHT22;2213;49.720;7.296;2023-03-23T03:28:24;11.80;99.90
4399;DHT22;2213;49.720;7.296;2023-03-23T03:30:56;11.80;99.90
4399;DHT22;2213;49.720;7.296;2023-03-23T03:33:27;11.80;99.90
4399;DHT22;2213;49.720;7.296;2023-03-23T03:36:00;11.70;99.90
4399;DHT22;2213;49.720;7.296;2023-03-23T03:38:41;11.70;99.90
4399;DHT22;2213;49.720;7.296;2023-03-23T03:41:10;11.70;99.90
4399;DHT22;2213;49.720;7.296;2023-03-23T03:43:39;11.70;99.90
4399;DHT22;2213;49.720;7.296;2023-03-23T03:46:07;11.70;99.90
4399;DHT22;2213;49.720;7.296;2023-03-23T03:48:36;11.60;99.90
4399;DHT22;2213;49.720;7.296;2023-03-23T03:51:06;11.60;99.90
4399;DHT22;2213;49.720;7.296;2023-03-23T03:53:35;11.60;99.90
4399;DHT22;2213;49.720;7.296;2023-03-23T03:56:04;11.60;99.90
4399;DHT22;2213;49.720;7.296;2023-03-23T03:58:33;11.70;99.90
4399;DHT22;2213;49.720;7.296;2023-03-23T04:01:03;11.60;99.90
4399;DHT22;2213;49.720;7.296;2023-03-23T04:03:32;11.50;99.90
4399;DHT22;2213;49.720;7.296;2023-03-23T04:06:00;11.60;99.90
4399;DHT22;2213;49.720;7.296;2023-03-23T04:08:31;11.50;99.90
4399;DHT22;2213;49.720;7.296;2023-03-23T04:10:59;11.50;99.90
4399;DHT22;2213;49.720;7.296;2023-03-23T04:13:28;11.50;99.90
4399;DHT22;2213;49.720;7.296;2023-03-23T04:15:57;11.50;99.90
4399;DHT22;2213;49.720;7.296;2023-03-23T04:18:26;11.50;99.90
4399;DHT22;2213;49.720;7.296;2023-03-23T04:20:56;11.40;99.90
4399;DHT22;2213;49.720;7.296;2023-03-23T04:23:28;11.40;99.90
4399;DHT22;2213;49.720;7.296;2023-03-23T04:26:01;11.30;99.90
4399;DHT22;2213;49.720;7.296;2023-03-23T04:28:30;11.40;99.90
4399;DHT22;2213;49.720;7.296;2023-03-23T04:31:01;11.40;99.90
4399;DHT22;2213;49.720;7.296;2023-03-23T04:33:29;11.40;99.90
4399;DHT22;2213;49.720;7.296;2023-03-23T04:36:00;11.40;99.90
4399;DHT22;2213;49.720;7.296;2023-03-23T04:38:29;11.40;99.90
4399;DHT22;2213;49.720;7.296;2023-03-23T04:41:00;11.40;99.90
4399;DHT22;2213;49.720;7.296;2023-03-23T04:43:28;11.40;99.90
4399;DHT22;2213;49.720;7.296;2023-03-23T04:46:00;11.40;99.90
4399;DHT22;2213;49.720;7.296;2023-03-23T04:48:29;11.30;99.90
4399;DHT22;2213;49.720;7.296;2023-03-23T04:51:01;11.30;99.90
4399;DHT22;2213;49.720;7.296;2023-03-23T04:53:29;11.40;99.90
4399;DHT22;2213;49.720;7.296;2023-03-23T04:55:59;11.30;99.90
4399;DHT22;2213;49.720;7.296;2023-03-23T04:58:28;11.30;99.90
4399;DHT22;2213;49.720;7.296;2023-03-23T05:01:00;11.30;99.90
4399;DHT22;2213;49.720;7.296;2023-03-23T05:03:31;11.30;99.90
4399;DHT22;2213;49.720;7.296;2023-03-23T05:06:01;11.40;99.90
4399;DHT22;2213;49.720;7.296;2023-03-23T05:08:29;11.30;99.90
4399;DHT22;2213;49.720;7.296;2023-03-23T05:11:00;11.40;99.90
4399;DHT22;2213;49.720;7.296;2023-03-23T05:13:29;11.30;99.90
4399;DHT22;2213;49.720;7.296;2023-03-23T05:15:57;11.30;99.90
4399;DHT22;2213;49.720;7.296;2023-03-23T05:18:25;11.30;99.90
4399;DHT22;2213;49.720;7.296;2023-03-23T05:20:58;11.30;99.90
4399;DHT22;2213;49.720;7.296;2023-03-23T05:23:27;11.30;99.90
4399;DHT22;2213;49.720;7.296;2023-03-23T05:25:58;11.30;99.90
4399;DHT22;2213;49.720;7.296;2023-03-23T05:28:28;11.30;99.90
4399;DHT22;2213;49.720;7.296;2023-03-23T05:30:57;11.30;99.90
4399;DHT22;2213;49.720;7.296;2023-03-23T05:33:25;11.30;99.90
4399;DHT22;2213;49.720;7.296;2023-03-23T05:35:54;11.30;99.90
4399;DHT22;2213;49.720;7.296;2023-03-23T05:38:22;11.30;99.90
4399;DHT22;2213;49.720;7.296;2023-03-23T05:40:51;11.20;99.90
4399;DHT22;2213;49.720;7.296;2023-03-23T05:43:22;11.30;99.90
4399;DHT22;2213;49.720;7.296;2023-03-23T05:45:50;11.30;99.90
4399;DHT22;2213;49.720;7.296;2023-03-23T05:48:19;11.20;99.90
4399;DHT22;2213;49.720;7.296;2023-03-23T05:50:48;11.20;99.90
4399;DHT22;2213;49.720;7.296;2023-03-23T05:53:17;11.20;99.90
4399;DHT22;2213;49.720;7.296;2023-03-23T05:55:45;11.10;99.90
4399;DHT22;2213;49.720;7.296;2023-03-23T05:58:14;11.20;99.90
4399;DHT22;2213;49.720;7.296;2023-03-23T06:00:43;11.20;99.90
4399;DHT22;2213;49.720;7.296;2023-03-23T06:03:13;11.30;99.90
4399;DHT22;2213;49.720;7.296;2023-03-23T06:05:42;11.30;99.90
4399;DHT22;2213;49.720;7.296;2023-03-23T06:08:11;11.20;99.90
4399;DHT22;2213;49.720;7.296;2023-03-23T06:10:40;11.20;99.90
4399;DHT22;2213;49.720;7.296;2023-03-23T06:13:08;11.30;99.90
4399;DHT22;2213;49.720;7.296;2023-03-23T06:15:36;11.20;99.90
4399;DHT22;2213;49.720;7.296;2023-03-23T06:18:05;11.20;99.90
4399;DHT22;2213;49.720;7.296;2023-03-23T06:20:33;11.30;99.90
4399;DHT22;2213;49.720;7.296;2023-03-23T06:23:03;11.30;99.90
4399;DHT22;2213;49.720;7.296;2023-03-23T06:25:31;11.30;99.90
4399;DHT22;2213;49.720;7.296;2023-03-23T06:27:59;11.30;99.90
4399;DHT22;2213;49.720;7.296;2023-03-23T06:30:28;11.30;99.90
4399;DHT22;2213;49.720;7.296;2023-03-23T06:32:58;11.30;99.90
4399;DHT22;2213;49.720;7.296;2023-03-23T06:35:29;11.40;99.90
4399;DHT22;2213;49.720;7.296;2023-03-23T06:37:57;11.30;99.90
4399;DHT22;2213;49.720;7.296;2023-03-23T06:40:27;11.30;99.90
4399;DHT22;2213;49.720;7.296;2023-03-23T06:42:57;11.30;99.90
4399;DHT22;2213;49.720;7.296;2023-03-23T06:45:25;11.30;99.90
4399;DHT22;2213;49.720;7.296;2023-03-23T06:47:53;11.30;99.90
4399;DHT22;2213;49.720;7.296;2023-03-23T06:50:21;11.40;99.90
4399;DHT22;2213;49.720;7.296;2023-03-23T06:52:50;11.40;99.90
4399;DHT22;2213;49.720;7.296;2023-03-23T06:55:18;11.40;99.90
4399;DHT22;2213;49.720;7.296;2023-03-23T06:57:47;11.40;99.90
4399;DHT22;2213;49.720;7.296;2023-03-23T07:00:16;11.40;99.90
4399;DHT22;2213;49.720;7.296;2023-03-23T07:02:46;11.50;99.90
4399;DHT22;2213;49.720;7.296;2023-03-23T07:05:14;11.50;99.90
4399;DHT22;2213;49.720;7.296;2023-03-23T07:07:42;11.40;99.90
4399;DHT22;2213;49.720;7.296;2023-03-23T07:10:11;11.50;99.90
4399;DHT22;2213;49.720;7.296;2023-03-23T07:12:39;11.40;99.90
4399;DHT22;2213;49.720;7.296;2023-03-23T07:15:08;11.50;99.90
4399;DHT22;2213;49.720;7.296;2023-03-23T07:17:39;11.50;99.90
4399;DHT22;2213;49.720;7.296;2023-03-23T07:20:08;11.50;99.90
4399;DHT22;2213;49.720;7.296;2023-03-23T07:22:36;11.60;99.90
4399;DHT22;2213;49.720;7.296;2023-03-23T07:25:06;11.60;99.90
4399;DHT22;2213;49.720;7.296;2023-03-23T07:27:36;11.70;99.90
4399;DHT22;2213;49.720;7.296;2023-03-23T07:30:08;11.60;99.90
4399;DHT22;2213;49.720;7.296;2023-03-23T07:32:37;11.70;99.90
4399;DHT22;2213;49.720;7.296;2023-03-23T07:35:06;11.80;99.90
4399;DHT22;2213;49.720;7.296;2023-03-23T07:37:36;11.80;99.90
4399;DHT22;2213;49.720;7.296;2023-03-23T07:40:05;11.80;99.90
4399;DHT22;2213;49.720;7.296;2023-03-23T07:42:42;11.70;99.90
4399;DHT22;2213;49.720;7.296;2023-03-23T07:45:13;11.70;99.90
4399;DHT22;2213;49.720;7.296;2023-03-23T07:47:42;11.80;99.90
4399;DHT22;2213;49.720;7.296;2023-03-23T07:50:10;11.80;99.90
4399;DHT22;2213;49.720;7.296;2023-03-23T07:52:40;11.80;99.90
4399;DHT22;2213;49.720;7.296;2023-03-23T07:55:10;11.80;99.90
4399;DHT22;2213;49.720;7.296;2023-03-23T07:57:45;11.70;99.90
4399;DHT22;2213;49.720;7.296;2023-03-23T08:00:16;11.80;99.90
4399;DHT22;2213;49.720;7.296;2023-03-23T08:02:47;11.80;99.90
4399;DHT22;2213;49.720;7.296;2023-03-23T08:05:16;11.90;99.90
4399;DHT22;2213;49.720;7.296;2023-03-23T08:07:45;11.90;99.90
4399;DHT22;2213;49.720;7.296;2023-03-23T08:10:14;11.80;99.90
4399;DHT22;2213;49.720;7.296;2023-03-23T08:12:45;11.80;99.90
4399;DHT22;2213;49.720;7.296;2023-03-23T08:15:14;11.90;99.90
4399;DHT22;2213;49.720;7.296;2023-03-23T08:17:43;11.80;99.90
4399;DHT22;2213;49.720;7.296;2023-03-23T08:20:12;11.90;99.90
4399;DHT22;2213;49.720;7.296;2023-03-23T08:22:43;11.90;99.90
4399;DHT22;2213;49.720;7.296;2023-03-23T08:25:13;11.80;99.90
4399;DHT22;2213;49.720;7.296;2023-03-23T08:27:43;11.80;99.90
4399;DHT22;2213;49.720;7.296;2023-03-23T08:30:15;11.90;99.90
4399;DHT22;2213;49.720;7.296;2023-03-23T08:32:46;11.90;99.90
4399;DHT22;2213;49.720;7.296;2023-03-23T08:35:15;11.90;99.90
4399;DHT22;2213;49.720;7.296;2023-03-23T08:37:45;12.00;99.90
4399;DHT22;2213;49.720;7.296;2023-03-23T08:40:19;12.00;99.90
4399;DHT22;2213;49.720;7.296;2023-03-23T08:42:51;12.10;99.90
4399;DHT22;2213;49.720;7.296;2023-03-23T08:45:22;12.10;99.90
4399;DHT22;2213;49.720;7.296;2023-03-23T08:47:52;12.10;99.90
4399;DHT22;2213;49.720;7.296;2023-03-23T08:50:22;12.10;99.90
4399;DHT22;2213;49.720;7.296;2023-03-23T08:52:53;12.10;99.90
4399;DHT22;2213;49.720;7.296;2023-03-23T08:55:22;12.10;99.90
4399;DHT22;2213;49.720;7.296;2023-03-23T08:57:52;12.10;99.90
4399;DHT22;2213;49.720;7.296;2023-03-23T09:00:21;12.10;99.90
4399;DHT22;2213;49.720;7.296;2023-03-23T09:02:53;12.10;99.90
4399;DHT22;2213;49.720;7.296;2023-03-23T09:05:25;12.10;99.90
4399;DHT22;2213;49.720;7.296;2023-03-23T09:07:57;12.10;99.90
4399;DHT22;2213;49.720;7.296;2023-03-23T09:10:26;12.10;99.90
4399;DHT22;2213;49.720;7.296;2023-03-23T09:12:58;12.10;99.90
4399;DHT22;2213;49.720;7.296;2023-03-23T09:15:26;12.10;99.90
4399;DHT22;2213;49.720;7.296;2023-03-23T09:17:54;12.20;99.90
4399;DHT22;2213;49.720;7.296;2023-03-23T09:20:25;12.10;99.90
4399;DHT22;2213;49.720;7.296;2023-03-23T09:22:55;11.90;99.90
4399;DHT22;2213;49.720;7.296;2023-03-23T09:25:25;11.90;99.90
4399;DHT22;2213;49.720;7.296;2023-03-23T09:27:55;12.00;99.90
4399;DHT22;2213;49.720;7.296;2023-03-23T09:30:27;12.00;99.90
4399;DHT22;2213;49.720;7.296;2023-03-23T09:32:57;12.00;99.90
4399;DHT22;2213;49.720;7.296;2023-03-23T09:35:27;12.10;99.90
4399;DHT22;2213;49.720;7.296;2023-03-23T09:37:56;12.10;99.90
4399;DHT22;2213;49.720;7.296;2023-03-23T09:40:29;12.00;99.90
4399;DHT22;2213;49.720;7.296;2023-03-23T09:43:16;12.10;99.90
4399;DHT22;2213;49.720;7.296;2023-03-23T09:46:02;12.00;99.90
4399;DHT22;2213;49.720;7.296;2023-03-23T09:48:48;12.10;99.90
4399;DHT22;2213;49.720;7.296;2023-03-23T09:51:35;12.00;99.90
4399;DHT22;2213;49.720;7.296;2023-03-23T09:54:16;12.00;99.90
4399;DHT22;2213;49.720;7.296;2023-03-23T09:56:47;12.10;99.90
4399;DHT22;2213;49.720;7.296;2023-03-23T09:59:24;12.10;99.90
4399;DHT22;2213;49.720;7.296;2023-03-23T10:02:02;12.20;99.90
4399;DHT22;2213;49.720;7.296;2023-03-23T10:04:46;12.10;99.90
4399;DHT22;2213;49.720;7.296;2023-03-23T10:07:18;12.20;99.90
4399;DHT22;2213;49.720;7.296;2023-03-23T10:09:51;12.20;99.90
4399;DHT22;2213;49.720;7.296;2023-03-23T10:12:27;12.20;99.90
4399;DHT22;2213;49.720;7.296;2023-03-23T10:15:10;12.30;99.90
4399;DHT22;2213;49.720;7.296;2023-03-23T10:17:46;12.30;99.90
4399;DHT22;2213;49.720;7.296;2023-03-23T10:20:48;12.40;99.90
4399;DHT22;2213;49.720;7.296;2023-03-23T10:23:41;12.40;99.90
4399;DHT22;2213;49.720;7.296;2023-03-23T10:26:25;12.50;99.90
4399;DHT22;2213;49.720;7.296;2023-03-23T10:29:10;12.60;99.90
4399;DHT22;2213;49.720;7.296;2023-03-23T10:31:48;12.60;99.90
4399;DHT22;2213;49.720;7.296;2023-03-23T10:34:24;12.70;99.90
4399;DHT22;2213;49.720;7.296;2023-03-23T10:37:05;12.60;99.90
4399;DHT22;2213;49.720;7.296;2023-03-23T10:39:46;12.70;99.90
4399;DHT22;2213;49.720;7.296;2023-03-23T10:42:30;12.70;99.90
4399;DHT22;2213;49.720;7.296;2023-03-23T10:45:12;12.70;99.90
4399;DHT22;2213;49.720;7.296;2023-03-23T10:47:49;12.70;99.90
4399;DHT22;2213;49.720;7.296;2023-03-23T10:50:24;12.60;99.90
4399;DHT22;2213;49.720;7.296;2023-03-23T10:52:57;12.70;99.90
4399;DHT22;2213;49.720;7.296;2023-03-23T10:55:37;12.50;99.90
4399;DHT22;2213;49.720;7.296;2023-03-23T10:58:10;12.50;99.90
4399;DHT22;2213;49.720;7.296;2023-03-23T11:00:45;12.40;99.90
4399;DHT22;2213;49.720;7.296;2023-03-23T11:03:25;12.40;99.90
4399;DHT22;2213;49.720;7.296;2023-03-23T11:06:03;12.60;99.90
4399;DHT22;2213;49.720;7.296;2023-03-23T11:08:36;12.60;99.90
4399;DHT22;2213;49.720;7.296;2023-03-23T11:11:17;12.60;99.90
4399;DHT22;2213;49.720;7.296;2023-03-23T11:13:49;12.60;99.90
4399;DHT22;2213;49.720;7.296;2023-03-23T11:16:24;12.50;99.90
4399;DHT22;2213;49.720;7.296;2023-03-23T11:18:54;12.50;99.90
4399;DHT22;2213;49.720;7.296;2023-03-23T11:21:25;12.60;99.90
4399;DHT22;2213;49.720;7.296;2023-03-23T11:23:55;12.70;99.90
4399;DHT22;2213;49.720;7.296;2023-03-23T11:26:28;12.60;99.90
4399;DHT22;2213;49.720;7.296;2023-03-23T11:29:04;12.70;99.90
4399;DHT22;2213;49.720;7.296;2023-03-23T11:31:40;12.60;99.90
4399;DHT22;2213;49.720;7.296;2023-03-23T11:34:17;12.70;99.90
4399;DHT22;2213;49.720;7.296;2023-03-23T11:36:51;12.60;99.90
4399;DHT22;2213;49.720;7.296;2023-03-23T11:39:23;12.70;99.90
4399;DHT22;2213;49.720;7.296;2023-03-23T11:41:55;12.80;99.90
4399;DHT22;2213;49.720;7.296;2023-03-23T11:44:31;12.80;99.90
4399;DHT22;2213;49.720;7.296;2023-03-23T11:47:04;12.80;99.90
4399;DHT22;2213;49.720;7.296;2023-03-23T11:49:51;12.80;99.90
4399;DHT22;2213;49.720;7.296;2023-03-23T11:52:43;12.80;99.90
4399;DHT22;2213;49.720;7.296;2023-03-23T11:55:16;12.80;99.90
4399;DHT22;2213;49.720;7.296;2023-03-23T11:57:49;13.00;99.90
4399;DHT22;2213;49.720;7.296;2023-03-23T12:00:21;12.90;99.90
4399;DHT22;2213;49.720;7.296;2023-03-23T12:02:57;13.00;99.90
4399;DHT22;2213;49.720;7.296;2023-03-23T12:05:43;13.00;99.90
4399;DHT22;2213;49.720;7.296;2023-03-23T12:08:25;13.00;99.90
4399;DHT22;2213;49.720;7.296;2023-03-23T12:11:49;13.00;99.90
4399;DHT22;2213;49.720;7.296;2023-03-23T12:14:30;12.90;99.90
4399;DHT22;2213;49.720;7.296;2023-03-23T12:17:19;12.90;99.90
4399;DHT22;2213;49.720;7.296;2023-03-23T12:20:06;12.80;99.90
4399;DHT22;2213;49.720;7.296;2023-03-23T12:22:58;12.90;99.90
4399;DHT22;2213;49.720;7.296;2023-03-23T12:26:01;12.80;99.90
4399;DHT22;2213;49.720;7.296;2023-03-23T12:28:49;13.00;99.90
4399;DHT22;2213;49.720;7.296;2023-03-23T12:31:37;13.00;99.90
4399;DHT22;2213;49.720;7.296;2023-03-23T12:34:18;13.00;99.90
4399;DHT22;2213;49.720;7.296;2023-03-23T12:37:06;13.10;99.90
4399;DHT22;2213;49.720;7.296;2023-03-23T12:40:05;13.10;99.90
4399;DHT22;2213;49.720;7.296;2023-03-23T12:42:54;13.20;99.90
4399;DHT22;2213;49.720;7.296;2023-03-23T12:45:55;13.30;99.90
4399;DHT22;2213;49.720;7.296;2023-03-23T12:48:33;13.20;99.90
4399;DHT22;2213;49.720;7.296;2023-03-23T12:51:14;13.20;99.90
4399;DHT22;2213;49.720;7.296;2023-03-23T12:53:52;13.10;99.90
4399;DHT22;2213;49.720;7.296;2023-03-23T12:56:31;13.00;99.90
4399;DHT22;2213;49.720;7.296;2023-03-23T12:59:12;13.10;99.90
4399;DHT22;2213;49.720;7.296;2023-03-23T13:01:47;13.10;99.90
4399;DHT22;2213;49.720;7.296;2023-03-23T13:04:23;13.10;99.90
4399;DHT22;2213;49.720;7.296;2023-03-23T13:06:59;13.10;99.90
4399;DHT22;2213;49.720;7.296;2023-03-23T13:09:38;13.00;99.90
4399;DHT22;2213;49.720;7.296;2023-03-23T13:12:16;13.10;99.90
4399;DHT22;2213;49.720;7.296;2023-03-23T13:14:55;13.10;99.90
4399;DHT22;2213;49.720;7.296;2023-03-23T13:17:37;13.20;99.90
4399;DHT22;2213;49.720;7.296;2023-03-23T13:20:36;13.30;99.90
4399;DHT22;2213;49.720;7.296;2023-03-23T13:23:14;13.20;99.90
4399;DHT22;2213;49.720;7.296;2023-03-23T13:25:51;13.30;99.90
4399;DHT22;2213;49.720;7.296;2023-03-23T13:28:25;13.30;99.90
4399;DHT22;2213;49.720;7.296;2023-03-23T13:31:02;13.40;99.90
4399;DHT22;2213;49.720;7.296;2023-03-23T13:33:39;13.40;99.90
4399;DHT22;2213;49.720;7.296;2023-03-23T13:36:15;13.50;99.90
4399;DHT22;2213;49.720;7.296;2023-03-23T13:38:49;13.50;99.90
4399;DHT22;2213;49.720;7.296;2023-03-23T13:41:19;13.30;99.90
4399;DHT22;2213;49.720;7.296;2023-03-23T13:43:49;13.30;99.90
4399;DHT22;2213;49.720;7.296;2023-03-23T13:46:27;13.30;99.90
4399;DHT22;2213;49.720;7.296;2023-03-23T13:49:15;13.40;99.90
4399;DHT22;2213;49.720;7.296;2023-03-23T13:52:01;13.40;99.90
4399;DHT22;2213;49.720;7.296;2023-03-23T13:54:45;13.30;99.90
4399;DHT22;2213;49.720;7.296;2023-03-23T13:57:35;13.20;99.90
4399;DHT22;2213;49.720;7.296;2023-03-23T14:00:34;13.20;99.90
4399;DHT22;2213;49.720;7.296;2023-03-23T14:03:15;13.30;99.90
4399;DHT22;2213;49.720;7.296;2023-03-23T14:05:49;13.20;99.90
4399;DHT22;2213;49.720;7.296;2023-03-23T14:08:24;13.40;99.90
4399;DHT22;2213;49.720;7.296;2023-03-23T14:11:12;13.30;99.90
4399;DHT22;2213;49.720;7.296;2023-03-23T14:13:46;13.40;99.90
4399;DHT22;2213;49.720;7.296;2023-03-23T14:16:22;13.50;99.90
4399;DHT22;2213;49.720;7.296;2023-03-23T14:18:55;13.50;99.90
4399;DHT22;2213;49.720;7.296;2023-03-23T14:21:35;13.50;99.90
4399;DHT22;2213;49.720;7.296;2023-03-23T14:24:11;13.70;99.90
4399;DHT22;2213;49.720;7.296;2023-03-23T14:26:44;13.60;99.90
4399;DHT22;2213;49.720;7.296;2023-03-23T14:29:13;13.70;99.90
4399;DHT22;2213;49.720;7.296;2023-03-23T14:31:44;13.70;99.90
4399;DHT22;2213;49.720;7.296;2023-03-23T14:34:19;13.60;99.90
4399;DHT22;2213;49.720;7.296;2023-03-23T14:36:50;13.60;99.90
4399;DHT22;2213;49.720;7.296;2023-03-23T14:39:22;13.60;99.90
4399;DHT22;2213;49.720;7.296;2023-03-23T14:41:54;13.50;99.90
4399;DHT22;2213;49.720;7.296;2023-03-23T14:44:27;13.60;99.90
4399;DHT22;2213;49.720;7.296;2023-03-23T14:47:01;13.40;99.90
4399;DHT22;2213;49.720;7.296;2023-03-23T14:49:34;13.50;99.90
4399;DHT22;2213;49.720;7.296;2023-03-23T14:52:10;13.40;99.90
4399;DHT22;2213;49.720;7.296;2023-03-23T14:54:39;13.40;99.90
4399;DHT22;2213;49.720;7.296;2023-03-23T14:57:13;13.40;99.90
4399;DHT22;2213;49.720;7.296;2023-03-23T14:59:45;13.40;99.90
4399;DHT22;2213;49.720;7.296;2023-03-23T15:02:20;13.40;99.90
4399;DHT22;2213;49.720;7.296;2023-03-23T15:04:55;13.50;99.90
4399;DHT22;2213;49.720;7.296;2023-03-23T15:07:34;13.50;99.90
4399;DHT22;2213;49.720;7.296;2023-03-23T15:10:07;13.50;99.90
4399;DHT22;2213;49.720;7.296;2023-03-23T15:12:38;13.40;99.90
4399;DHT22;2213;49.720;7.296;2023-03-23T15:15:12;13.20;99.90
4399;DHT22;2213;49.720;7.296;2023-03-23T15:17:49;13.30;99.90
4399;DHT22;2213;49.720;7.296;2023-03-23T15:20:23;13.40;99.90
4399;DHT22;2213;49.720;7.296;2023-03-23T15:22:53;13.50;99.90
4399;DHT22;2213;49.720;7.296;2023-03-23T15:25:23;13.40;99.90
4399;DHT22;2213;49.720;7.296;2023-03-23T15:28:06;13.50;99.90
4399;DHT22;2213;49.720;7.296;2023-03-23T15:30:47;13.50;99.90
4399;DHT22;2213;49.720;7.296;2023-03-23T15:33:19;13.50;99.90
4399;DHT22;2213;49.720;7.296;2023-03-23T15:35:53;13.50;99.90
4399;DHT22;2213;49.720;7.296;2023-03-23T15:38:25;13.50;99.90
4399;DHT22;2213;49.720;7.296;2023-03-23T15:40:59;13.60;99.90
4399;DHT22;2213;49.720;7.296;2023-03-23T15:43:32;13.50;99.90
4399;DHT22;2213;49.720;7.296;2023-03-23T15:46:04;13.40;99.90
4399;DHT22;2213;49.720;7.296;2023-03-23T15:48:49;13.50;99.90
4399;DHT22;2213;49.720;7.296;2023-03-23T15:51:20;13.50;99.90
4399;DHT22;2213;49.720;7.296;2023-03-23T15:53:53;13.60;99.90
4399;DHT22;2213;49.720;7.296;2023-03-23T15:56:22;13.80;99.90
4399;DHT22;2213;49.720;7.296;2023-03-23T15:58:52;13.70;99.90
4399;DHT22;2213;49.720;7.296;2023-03-23T16:01:24;13.60;99.90
4399;DHT22;2213;49.720;7.296;2023-03-23T16:03:59;13.60;99.90
4399;DHT22;2213;49.720;7.296;2023-03-23T16:06:34;13.70;99.90
4399;DHT22;2213;49.720;7.296;2023-03-23T16:09:05;13.70;99.90
4399;DHT22;2213;49.720;7.296;2023-03-23T16:11:36;13.70;99.90
4399;DHT22;2213;49.720;7.296;2023-03-23T16:14:06;13.70;99.90
4399;DHT22;2213;49.720;7.296;2023-03-23T16:16:39;13.70;99.90
4399;DHT22;2213;49.720;7.296;2023-03-23T16:19:18;13.70;99.90
4399;DHT22;2213;49.720;7.296;2023-03-23T16:21:50;13.60;99.90
4399;DHT22;2213;49.720;7.296;2023-03-23T16:24:20;13.70;99.90
4399;DHT22;2213;49.720;7.296;2023-03-23T16:26:51;13.70;99.90
4399;DHT22;2213;49.720;7.296;2023-03-23T16:29:21;13.60;99.90
4399;DHT22;2213;49.720;7.296;2023-03-23T16:32:12;13.70;99.90
4399;DHT22;2213;49.720;7.296;2023-03-23T16:34:42;13.70;99.90
4399;DHT22;2213;49.720;7.296;2023-03-23T16:37:12;13.70;99.90
4399;DHT22;2213;49.720;7.296;2023-03-23T16:39:41;13.80;99.90
4399;DHT22;2213;49.720;7.296;2023-03-23T16:42:11;13.80;99.90
4399;DHT22;2213;49.720;7.296;2023-03-23T16:44:42;13.80;99.90
4399;DHT22;2213;49.720;7.296;2023-03-23T16:47:12;13.80;99.90
4399;DHT22;2213;49.720;7.296;2023-03-23T16:49:43;13.80;99.90